sensor_id;sensor_type;location;lat;lon;timestamp;P1;durP1;ratioP1;P2;durP2;ratioP2
48526;SDS011;34317;51.660;5.824;2023-12-04T00:01:16;25.50;;;10.23;;
48526;SDS011;34317;51.660;5.824;2023-12-04T00:03:44;30.35;;;10.57;;
48526;SDS011;34317;51.660;5.824;2023-12-04T00:06:12;25.17;;;10.05;;
48526;SDS011;34317;51.660;5.824;2023-12-04T00:08:40;23.83;;;9.95;;
48526;SDS011;34317;51.660;5.824;2023-12-04T00:11:07;28.08;;;10.20;;
48526;SDS011;34317;51.660;5.824;2023-12-04T00:13:34;24.52;;;10.15;;
48526;SDS011;34317;51.660;5.824;2023-12-04T00:16:02;23.38;;;10.10;;
48526;SDS011;34317;51.660;5.824;2023-12-04T00:18:29;23.80;;;9.43;;
48526;SDS011;34317;51.660;5.824;2023-12-04T00:20:57;24.33;;;9.73;;
48526;SDS011;34317;51.660;5.824;2023-12-04T00:23:24;24.25;;;10.43;;
48526;SDS011;34317;51.660;5.824;2023-12-04T00:25:53;27.85;;;11.18;;
48526;SDS011;34317;51.660;5.824;2023-12-04T00:28:21;25.75;;;10.65;;
48526;SDS011;34317;51.660;5.824;2023-12-04T00:30:48;29.42;;;11.10;;
48526;SDS011;34317;51.660;5.824;2023-12-04T00:33:16;21.23;;;10.45;;
48526;SDS011;34317;51.660;5.824;2023-12-04T00:35:43;25.85;;;10.52;;
48526;SDS011;34317;51.660;5.824;2023-12-04T00:38:10;27.50;;;10.20;;
48526;SDS011;34317;51.660;5.824;2023-12-04T00:40:37;26.30;;;10.40;;
48526;SDS011;34317;51.660;5.824;2023-12-04T00:43:04;25.83;;;10.30;;
48526;SDS011;34317;51.660;5.824;2023-12-04T00:45:32;21.38;;;9.50;;
48526;SDS011;34317;51.660;5.824;2023-12-04T00:48:00;23.02;;;10.25;;
48526;SDS011;34317;51.660;5.824;2023-12-04T00:50:27;25.60;;;9.95;;
48526;SDS011;34317;51.660;5.824;2023-12-04T00:52:54;23.55;;;10.30;;
48526;SDS011;34317;51.660;5.824;2023-12-04T00:55:21;21.67;;;8.90;;
48526;SDS011;34317;51.660;5.824;2023-12-04T00:57:48;27.80;;;10.50;;
48526;SDS011;34317;51.660;5.824;2023-12-04T01:00:16;25.90;;;11.98;;
48526;SDS011;34317;51.660;5.824;2023-12-04T01:02:43;28.60;;;11.55;;
48526;SDS011;34317;51.660;5.824;2023-12-04T01:05:11;26.77;;;10.00;;
48526;SDS011;34317;51.660;5.824;2023-12-04T01:07:38;24.20;;;10.55;;
48526;SDS011;34317;51.660;5.824;2023-12-04T01:10:05;27.02;;;10.82;;
48526;SDS011;34317;51.660;5.824;2023-12-04T01:12:32;24.48;;;10.18;;
48526;SDS011;34317;51.660;5.824;2023-12-04T01:15:01;30.30;;;11.65;;
48526;SDS011;34317;51.660;5.824;2023-12-04T01:17:28;27.67;;;10.43;;
48526;SDS011;34317;51.660;5.824;2023-12-04T01:19:56;23.05;;;9.80;;
48526;SDS011;34317;51.660;5.824;2023-12-04T01:22:24;23.50;;;10.60;;
48526;SDS011;34317;51.660;5.824;2023-12-04T01:24:51;26.70;;;10.63;;
48526;SDS011;34317;51.660;5.824;2023-12-04T01:27:19;26.00;;;10.18;;
48526;SDS011;34317;51.660;5.824;2023-12-04T01:29:46;21.88;;;9.85;;
48526;SDS011;34317;51.660;5.824;2023-12-04T01:32:13;25.25;;;10.63;;
48526;SDS011;34317;51.660;5.824;2023-12-04T01:34:40;22.08;;;9.95;;
48526;SDS011;34317;51.660;5.824;2023-12-04T01:37:07;22.88;;;10.20;;
48526;SDS011;34317;51.660;5.824;2023-12-04T01:39:35;23.95;;;10.55;;
48526;SDS011;34317;51.660;5.824;2023-12-04T01:42:03;24.42;;;10.30;;
48526;SDS011;34317;51.660;5.824;2023-12-04T01:44:31;26.13;;;10.30;;
48526;SDS011;34317;51.660;5.824;2023-12-04T01:46:58;22.17;;;9.82;;
48526;SDS011;34317;51.660;5.824;2023-12-04T01:49:27;23.50;;;10.20;;
48526;SDS011;34317;51.660;5.824;2023-12-04T01:51:55;20.20;;;9.32;;
48526;SDS011;34317;51.660;5.824;2023-12-04T01:54:23;22.25;;;10.23;;
48526;SDS011;34317;51.660;5.824;2023-12-04T01:56:51;24.15;;;9.95;;
48526;SDS011;34317;51.660;5.824;2023-12-04T01:59:18;21.35;;;8.98;;
48526;SDS011;34317;51.660;5.824;2023-12-04T02:01:46;23.15;;;9.90;;
48526;SDS011;34317;51.660;5.824;2023-12-04T02:04:13;23.00;;;9.75;;
48526;SDS011;34317;51.660;5.824;2023-12-04T02:06:41;22.48;;;9.63;;
48526;SDS011;34317;51.660;5.824;2023-12-04T02:09:08;22.23;;;9.30;;
48526;SDS011;34317;51.660;5.824;2023-12-04T02:11:39;22.27;;;9.40;;
48526;SDS011;34317;51.660;5.824;2023-12-04T02:14:07;20.58;;;9.10;;
48526;SDS011;34317;51.660;5.824;2023-12-04T02:16:36;21.42;;;9.20;;
48526;SDS011;34317;51.660;5.824;2023-12-04T02:19:07;20.60;;;9.30;;
48526;SDS011;34317;51.660;5.824;2023-12-04T02:21:35;20.70;;;8.75;;
48526;SDS011;34317;51.660;5.824;2023-12-04T02:24:03;19.05;;;8.73;;
48526;SDS011;34317;51.660;5.824;2023-12-04T02:26:31;19.92;;;9.00;;
48526;SDS011;34317;51.660;5.824;2023-12-04T02:29:07;21.42;;;9.18;;
48526;SDS011;34317;51.660;5.824;2023-12-04T02:31:39;22.08;;;9.80;;
48526;SDS011;34317;51.660;5.824;2023-12-04T02:34:07;20.05;;;8.50;;
48526;SDS011;34317;51.660;5.824;2023-12-04T02:36:36;21.67;;;8.63;;
48526;SDS011;34317;51.660;5.824;2023-12-04T02:39:05;21.10;;;8.73;;
48526;SDS011;34317;51.660;5.824;2023-12-04T02:41:32;20.63;;;8.88;;
48526;SDS011;34317;51.660;5.824;2023-12-04T02:44:00;21.55;;;8.27;;
48526;SDS011;34317;51.660;5.824;2023-12-04T02:46:27;19.60;;;9.23;;
48526;SDS011;34317;51.660;5.824;2023-12-04T02:48:54;18.67;;;8.30;;
48526;SDS011;34317;51.660;5.824;2023-12-04T02:51:21;20.50;;;8.57;;
48526;SDS011;34317;51.660;5.824;2023-12-04T02:53:48;16.95;;;8.73;;
48526;SDS011;34317;51.660;5.824;2023-12-04T02:56:15;19.80;;;8.60;;
48526;SDS011;34317;51.660;5.824;2023-12-04T02:58:43;18.30;;;8.52;;
48526;SDS011;34317;51.660;5.824;2023-12-04T03:01:10;19.05;;;8.43;;
48526;SDS011;34317;51.660;5.824;2023-12-04T03:03:37;19.05;;;8.32;;
48526;SDS011;34317;51.660;5.824;2023-12-04T03:06:04;18.98;;;9.10;;
48526;SDS011;34317;51.660;5.824;2023-12-04T03:08:32;18.00;;;8.57;;
48526;SDS011;34317;51.660;5.824;2023-12-04T03:11:01;18.55;;;7.72;;
48526;SDS011;34317;51.660;5.824;2023-12-04T03:13:28;20.63;;;8.95;;
48526;SDS011;34317;51.660;5.824;2023-12-04T03:15:57;18.88;;;8.40;;
48526;SDS011;34317;51.660;5.824;2023-12-04T03:18:24;16.70;;;8.85;;
48526;SDS011;34317;51.660;5.824;2023-12-04T03:20:53;19.70;;;8.60;;
48526;SDS011;34317;51.660;5.824;2023-12-04T03:23:20;18.00;;;8.63;;
48526;SDS011;34317;51.660;5.824;2023-12-04T03:25:47;20.13;;;8.40;;
48526;SDS011;34317;51.660;5.824;2023-12-04T03:28:15;16.63;;;8.10;;
48526;SDS011;34317;51.660;5.824;2023-12-04T03:30:42;16.83;;;8.27;;
48526;SDS011;34317;51.660;5.824;2023-12-04T03:33:12;17.60;;;8.07;;
48526;SDS011;34317;51.660;5.824;2023-12-04T03:35:40;17.83;;;8.73;;
48526;SDS011;34317;51.660;5.824;2023-12-04T03:38:07;19.73;;;9.05;;
48526;SDS011;34317;51.660;5.824;2023-12-04T03:40:34;16.92;;;8.13;;
48526;SDS011;34317;51.660;5.824;2023-12-04T03:43:01;20.88;;;8.60;;
48526;SDS011;34317;51.660;5.824;2023-12-04T03:45:29;18.80;;;8.50;;
48526;SDS011;34317;51.660;5.824;2023-12-04T03:47:56;17.40;;;8.07;;
48526;SDS011;34317;51.660;5.824;2023-12-04T03:50:23;17.60;;;8.48;;
48526;SDS011;34317;51.660;5.824;2023-12-04T03:52:50;18.02;;;8.15;;
48526;SDS011;34317;51.660;5.824;2023-12-04T03:55:18;18.13;;;8.27;;
48526;SDS011;34317;51.660;5.824;2023-12-04T03:57:46;16.20;;;8.10;;
48526;SDS011;34317;51.660;5.824;2023-12-04T04:00:14;16.58;;;8.27;;
48526;SDS011;34317;51.660;5.824;2023-12-04T04:02:42;16.20;;;8.15;;
48526;SDS011;34317;51.660;5.824;2023-12-04T04:05:10;17.77;;;8.85;;
48526;SDS011;34317;51.660;5.824;2023-12-04T04:07:37;15.68;;;8.25;;
48526;SDS011;34317;51.660;5.824;2023-12-04T04:10:04;18.08;;;7.43;;
48526;SDS011;34317;51.660;5.824;2023-12-04T04:12:32;17.48;;;8.48;;
48526;SDS011;34317;51.660;5.824;2023-12-04T04:14:59;15.85;;;7.45;;
48526;SDS011;34317;51.660;5.824;2023-12-04T04:17:27;18.63;;;8.35;;
48526;SDS011;34317;51.660;5.824;2023-12-04T04:19:54;15.50;;;7.97;;
48526;SDS011;34317;51.660;5.824;2023-12-04T04:22:22;16.33;;;8.02;;
48526;SDS011;34317;51.660;5.824;2023-12-04T04:24:49;16.30;;;7.80;;
48526;SDS011;34317;51.660;5.824;2023-12-04T04:27:17;18.38;;;8.75;;
48526;SDS011;34317;51.660;5.824;2023-12-04T04:29:44;17.77;;;8.20;;
48526;SDS011;34317;51.660;5.824;2023-12-04T04:32:11;16.85;;;7.50;;
48526;SDS011;34317;51.660;5.824;2023-12-04T04:34:41;15.68;;;8.00;;
48526;SDS011;34317;51.660;5.824;2023-12-04T04:37:08;18.17;;;8.02;;
48526;SDS011;34317;51.660;5.824;2023-12-04T04:39:35;17.27;;;8.13;;
48526;SDS011;34317;51.660;5.824;2023-12-04T04:42:02;16.63;;;8.18;;
48526;SDS011;34317;51.660;5.824;2023-12-04T04:44:29;15.60;;;7.32;;
48526;SDS011;34317;51.660;5.824;2023-12-04T04:46:57;16.65;;;7.68;;
48526;SDS011;34317;51.660;5.824;2023-12-04T04:49:24;14.65;;;7.45;;
48526;SDS011;34317;51.660;5.824;2023-12-04T04:51:51;16.45;;;7.57;;
48526;SDS011;34317;51.660;5.824;2023-12-04T04:54:18;17.20;;;7.13;;
48526;SDS011;34317;51.660;5.824;2023-12-04T04:56:45;16.52;;;7.65;;
48526;SDS011;34317;51.660;5.824;2023-12-04T04:59:12;14.77;;;7.45;;
48526;SDS011;34317;51.660;5.824;2023-12-04T05:01:40;15.25;;;7.35;;
48526;SDS011;34317;51.660;5.824;2023-12-04T05:04:07;16.10;;;7.55;;
48526;SDS011;34317;51.660;5.824;2023-12-04T05:06:34;15.80;;;7.45;;
48526;SDS011;34317;51.660;5.824;2023-12-04T05:09:02;14.85;;;7.38;;
48526;SDS011;34317;51.660;5.824;2023-12-04T05:11:29;12.77;;;7.03;;
48526;SDS011;34317;51.660;5.824;2023-12-04T05:13:56;13.45;;;6.43;;
48526;SDS011;34317;51.660;5.824;2023-12-04T05:16:24;13.27;;;6.88;;
48526;SDS011;34317;51.660;5.824;2023-12-04T05:18:51;15.70;;;7.35;;
48526;SDS011;34317;51.660;5.824;2023-12-04T05:21:18;13.85;;;7.30;;
48526;SDS011;34317;51.660;5.824;2023-12-04T05:23:45;15.77;;;7.70;;
48526;SDS011;34317;51.660;5.824;2023-12-04T05:26:12;13.55;;;7.63;;
48526;SDS011;34317;51.660;5.824;2023-12-04T05:28:40;14.70;;;7.03;;
48526;SDS011;34317;51.660;5.824;2023-12-04T05:31:07;12.68;;;6.65;;
48526;SDS011;34317;51.660;5.824;2023-12-04T05:33:34;15.30;;;7.28;;
48526;SDS011;34317;51.660;5.824;2023-12-04T05:36:02;13.90;;;6.93;;
48526;SDS011;34317;51.660;5.824;2023-12-04T05:38:29;12.70;;;6.47;;
48526;SDS011;34317;51.660;5.824;2023-12-04T05:40:56;16.15;;;7.55;;
48526;SDS011;34317;51.660;5.824;2023-12-04T05:43:23;14.82;;;6.90;;
48526;SDS011;34317;51.660;5.824;2023-12-04T05:45:51;14.68;;;7.15;;
48526;SDS011;34317;51.660;5.824;2023-12-04T05:48:18;15.45;;;7.28;;
48526;SDS011;34317;51.660;5.824;2023-12-04T05:50:46;15.70;;;7.03;;
48526;SDS011;34317;51.660;5.824;2023-12-04T05:53:13;12.00;;;6.63;;
48526;SDS011;34317;51.660;5.824;2023-12-04T05:55:40;13.13;;;6.32;;
48526;SDS011;34317;51.660;5.824;2023-12-04T05:58:07;13.60;;;6.93;;
48526;SDS011;34317;51.660;5.824;2023-12-04T06:00:34;14.25;;;6.70;;
48526;SDS011;34317;51.660;5.824;2023-12-04T06:03:02;13.88;;;6.75;;
48526;SDS011;34317;51.660;5.824;2023-12-04T06:05:29;12.68;;;6.10;;
48526;SDS011;34317;51.660;5.824;2023-12-04T06:07:56;13.13;;;6.55;;
48526;SDS011;34317;51.660;5.824;2023-12-04T06:10:25;12.70;;;6.10;;
48526;SDS011;34317;51.660;5.824;2023-12-04T06:12:52;14.98;;;6.53;;
48526;SDS011;34317;51.660;5.824;2023-12-04T06:15:19;13.50;;;6.35;;
48526;SDS011;34317;51.660;5.824;2023-12-04T06:17:46;12.27;;;6.72;;
48526;SDS011;34317;51.660;5.824;2023-12-04T06:20:13;11.60;;;6.30;;
48526;SDS011;34317;51.660;5.824;2023-12-04T06:22:41;13.73;;;6.50;;
48526;SDS011;34317;51.660;5.824;2023-12-04T06:25:08;12.40;;;6.25;;
48526;SDS011;34317;51.660;5.824;2023-12-04T06:27:36;12.30;;;6.85;;
48526;SDS011;34317;51.660;5.824;2023-12-04T06:30:05;13.68;;;6.75;;
48526;SDS011;34317;51.660;5.824;2023-12-04T06:32:34;13.00;;;6.00;;
48526;SDS011;34317;51.660;5.824;2023-12-04T06:35:01;11.82;;;6.90;;
48526;SDS011;34317;51.660;5.824;2023-12-04T06:37:30;13.05;;;6.47;;
48526;SDS011;34317;51.660;5.824;2023-12-04T06:39:59;14.90;;;6.53;;
48526;SDS011;34317;51.660;5.824;2023-12-04T06:42:29;12.43;;;6.22;;
48526;SDS011;34317;51.660;5.824;2023-12-04T06:44:57;12.15;;;6.35;;
48526;SDS011;34317;51.660;5.824;2023-12-04T06:47:25;12.68;;;5.60;;
48526;SDS011;34317;51.660;5.824;2023-12-04T06:49:54;10.68;;;4.53;;
48526;SDS011;34317;51.660;5.824;2023-12-04T06:52:22;9.75;;;4.80;;
48526;SDS011;34317;51.660;5.824;2023-12-04T06:54:49;8.40;;;4.65;;
48526;SDS011;34317;51.660;5.824;2023-12-04T06:57:17;12.40;;;4.72;;
48526;SDS011;34317;51.660;5.824;2023-12-04T06:59:44;12.52;;;5.10;;
48526;SDS011;34317;51.660;5.824;2023-12-04T07:02:11;11.35;;;5.45;;
48526;SDS011;34317;51.660;5.824;2023-12-04T07:04:38;11.55;;;5.57;;
48526;SDS011;34317;51.660;5.824;2023-12-04T07:07:06;10.02;;;4.30;;
48526;SDS011;34317;51.660;5.824;2023-12-04T07:09:34;5.60;;;3.22;;
48526;SDS011;34317;51.660;5.824;2023-12-04T07:12:01;7.85;;;4.75;;
48526;SDS011;34317;51.660;5.824;2023-12-04T07:14:30;10.98;;;4.18;;
48526;SDS011;34317;51.660;5.824;2023-12-04T07:16:57;14.73;;;4.25;;
48526;SDS011;34317;51.660;5.824;2023-12-04T07:19:24;8.88;;;3.55;;
48526;SDS011;34317;51.660;5.824;2023-12-04T07:21:52;8.82;;;3.95;;
48526;SDS011;34317;51.660;5.824;2023-12-04T07:24:20;8.27;;;3.70;;
48526;SDS011;34317;51.660;5.824;2023-12-04T07:26:47;9.68;;;4.03;;
48526;SDS011;34317;51.660;5.824;2023-12-04T07:29:14;9.68;;;4.18;;
48526;SDS011;34317;51.660;5.824;2023-12-04T07:31:41;7.93;;;4.03;;
48526;SDS011;34317;51.660;5.824;2023-12-04T07:34:09;9.93;;;4.50;;
48526;SDS011;34317;51.660;5.824;2023-12-04T07:36:36;7.38;;;3.90;;
48526;SDS011;34317;51.660;5.824;2023-12-04T07:39:03;7.28;;;4.00;;
48526;SDS011;34317;51.660;5.824;2023-12-04T07:41:33;11.65;;;4.28;;
48526;SDS011;34317;51.660;5.824;2023-12-04T07:44:00;8.65;;;3.75;;
48526;SDS011;34317;51.660;5.824;2023-12-04T07:46:27;8.65;;;3.85;;
48526;SDS011;34317;51.660;5.824;2023-12-04T07:48:54;10.75;;;4.10;;
48526;SDS011;34317;51.660;5.824;2023-12-04T07:51:22;9.45;;;4.20;;
48526;SDS011;34317;51.660;5.824;2023-12-04T07:53:50;10.07;;;4.63;;
48526;SDS011;34317;51.660;5.824;2023-12-04T07:56:17;10.57;;;4.13;;
48526;SDS011;34317;51.660;5.824;2023-12-04T07:58:44;9.63;;;4.22;;
48526;SDS011;34317;51.660;5.824;2023-12-04T08:01:11;7.53;;;3.75;;
48526;SDS011;34317;51.660;5.824;2023-12-04T08:03:38;8.20;;;4.10;;
48526;SDS011;34317;51.660;5.824;2023-12-04T08:06:06;8.32;;;3.75;;
48526;SDS011;34317;51.660;5.824;2023-12-04T08:08:33;10.40;;;3.67;;
48526;SDS011;34317;51.660;5.824;2023-12-04T08:11:00;8.55;;;3.83;;
48526;SDS011;34317;51.660;5.824;2023-12-04T08:13:27;10.02;;;4.20;;
48526;SDS011;34317;51.660;5.824;2023-12-04T08:15:54;10.80;;;4.00;;
48526;SDS011;34317;51.660;5.824;2023-12-04T08:18:22;9.32;;;4.18;;
48526;SDS011;34317;51.660;5.824;2023-12-04T08:20:49;7.53;;;3.95;;
48526;SDS011;34317;51.660;5.824;2023-12-04T08:23:16;7.65;;;3.80;;
48526;SDS011;34317;51.660;5.824;2023-12-04T08:25:43;7.97;;;3.83;;
48526;SDS011;34317;51.660;5.824;2023-12-04T08:28:11;10.38;;;4.47;;
48526;SDS011;34317;51.660;5.824;2023-12-04T08:30:38;10.88;;;4.05;;
48526;SDS011;34317;51.660;5.824;2023-12-04T08:33:05;9.55;;;4.35;;
48526;SDS011;34317;51.660;5.824;2023-12-04T08:35:33;9.40;;;3.40;;
48526;SDS011;34317;51.660;5.824;2023-12-04T08:38:00;9.18;;;3.95;;
48526;SDS011;34317;51.660;5.824;2023-12-04T08:40:28;9.68;;;4.57;;
48526;SDS011;34317;51.660;5.824;2023-12-04T08:42:55;7.88;;;3.55;;
48526;SDS011;34317;51.660;5.824;2023-12-04T08:45:22;9.30;;;4.32;;
48526;SDS011;34317;51.660;5.824;2023-12-04T08:47:49;9.18;;;4.10;;
48526;SDS011;34317;51.660;5.824;2023-12-04T08:50:16;9.85;;;4.32;;
48526;SDS011;34317;51.660;5.824;2023-12-04T08:52:44;9.15;;;3.85;;
48526;SDS011;34317;51.660;5.824;2023-12-04T08:55:11;10.82;;;4.10;;
48526;SDS011;34317;51.660;5.824;2023-12-04T08:57:39;9.57;;;4.15;;
48526;SDS011;34317;51.660;5.824;2023-12-04T09:00:06;9.35;;;4.20;;
48526;SDS011;34317;51.660;5.824;2023-12-04T09:02:35;7.47;;;4.10;;
48526;SDS011;34317;51.660;5.824;2023-12-04T09:05:12;10.48;;;4.28;;
48526;SDS011;34317;51.660;5.824;2023-12-04T09:07:39;12.52;;;4.53;;
48526;SDS011;34317;51.660;5.824;2023-12-04T09:10:27;8.95;;;4.45;;
48526;SDS011;34317;51.660;5.824;2023-12-04T09:13:14;7.90;;;4.15;;
48526;SDS011;34317;51.660;5.824;2023-12-04T09:15:42;11.40;;;4.60;;
48526;SDS011;34317;51.660;5.824;2023-12-04T09:18:09;9.68;;;4.07;;
48526;SDS011;34317;51.660;5.824;2023-12-04T09:20:37;13.15;;;4.85;;
48526;SDS011;34317;51.660;5.824;2023-12-04T09:23:04;10.73;;;4.53;;
48526;SDS011;34317;51.660;5.824;2023-12-04T09:25:35;9.25;;;4.50;;
48526;SDS011;34317;51.660;5.824;2023-12-04T09:28:03;9.18;;;4.50;;
48526;SDS011;34317;51.660;5.824;2023-12-04T09:30:31;9.93;;;4.90;;
48526;SDS011;34317;51.660;5.824;2023-12-04T09:32:58;10.27;;;4.57;;
48526;SDS011;34317;51.660;5.824;2023-12-04T09:35:25;13.15;;;5.30;;
48526;SDS011;34317;51.660;5.824;2023-12-04T09:37:52;8.30;;;4.43;;
48526;SDS011;34317;51.660;5.824;2023-12-04T09:40:21;12.13;;;5.38;;
48526;SDS011;34317;51.660;5.824;2023-12-04T09:42:48;13.40;;;4.90;;
48526;SDS011;34317;51.660;5.824;2023-12-04T09:45:15;9.95;;;4.85;;
48526;SDS011;34317;51.660;5.824;2023-12-04T09:47:44;12.02;;;5.40;;
48526;SDS011;34317;51.660;5.824;2023-12-04T09:50:16;12.48;;;5.18;;
48526;SDS011;34317;51.660;5.824;2023-12-04T09:52:48;15.93;;;5.93;;
48526;SDS011;34317;51.660;5.824;2023-12-04T09:55:17;11.82;;;5.03;;
48526;SDS011;34317;51.660;5.824;2023-12-04T09:57:44;11.88;;;5.22;;
48526;SDS011;34317;51.660;5.824;2023-12-04T10:00:12;11.15;;;5.70;;
48526;SDS011;34317;51.660;5.824;2023-12-04T10:02:41;13.80;;;5.72;;
48526;SDS011;34317;51.660;5.824;2023-12-04T10:05:09;11.95;;;5.40;;
48526;SDS011;34317;51.660;5.824;2023-12-04T10:07:36;13.50;;;5.28;;
48526;SDS011;34317;51.660;5.824;2023-12-04T10:10:05;14.60;;;5.63;;
48526;SDS011;34317;51.660;5.824;2023-12-04T10:12:33;11.23;;;5.43;;
48526;SDS011;34317;51.660;5.824;2023-12-04T10:15:03;14.05;;;5.68;;
48526;SDS011;34317;51.660;5.824;2023-12-04T10:17:37;15.48;;;5.10;;
48526;SDS011;34317;51.660;5.824;2023-12-04T10:20:06;10.98;;;5.03;;
48526;SDS011;34317;51.660;5.824;2023-12-04T10:22:39;12.02;;;5.32;;
48526;SDS011;34317;51.660;5.824;2023-12-04T10:25:18;12.90;;;5.60;;
48526;SDS011;34317;51.660;5.824;2023-12-04T10:27:46;12.95;;;5.45;;
48526;SDS011;34317;51.660;5.824;2023-12-04T10:32:53;11.98;;;5.57;;
48526;SDS011;34317;51.660;5.824;2023-12-04T10:35:28;13.43;;;6.07;;
48526;SDS011;34317;51.660;5.824;2023-12-04T10:37:58;11.20;;;5.25;;
48526;SDS011;34317;51.660;5.824;2023-12-04T10:40:30;12.63;;;5.60;;
48526;SDS011;34317;51.660;5.824;2023-12-04T10:45:41;13.75;;;5.75;;
48526;SDS011;34317;51.660;5.824;2023-12-04T10:48:10;13.00;;;5.50;;
48526;SDS011;34317;51.660;5.824;2023-12-04T10:50:39;10.40;;;4.90;;
48526;SDS011;34317;51.660;5.824;2023-12-04T10:53:08;12.52;;;5.28;;
48526;SDS011;34317;51.660;5.824;2023-12-04T10:55:36;11.68;;;5.13;;
48526;SDS011;34317;51.660;5.824;2023-12-04T10:58:07;13.23;;;4.85;;
48526;SDS011;34317;51.660;5.824;2023-12-04T11:00:40;12.00;;;5.18;;
48526;SDS011;34317;51.660;5.824;2023-12-04T11:03:18;12.00;;;5.05;;
48526;SDS011;34317;51.660;5.824;2023-12-04T11:05:47;12.00;;;5.07;;
48526;SDS011;34317;51.660;5.824;2023-12-04T11:08:19;14.10;;;5.85;;
48526;SDS011;34317;51.660;5.824;2023-12-04T11:10:56;10.25;;;5.15;;
48526;SDS011;34317;51.660;5.824;2023-12-04T11:13:37;9.52;;;4.60;;
48526;SDS011;34317;51.660;5.824;2023-12-04T11:18:51;12.43;;;5.03;;
48526;SDS011;34317;51.660;5.824;2023-12-04T11:21:30;12.80;;;5.63;;
48526;SDS011;34317;51.660;5.824;2023-12-04T11:23:59;10.98;;;5.07;;
48526;SDS011;34317;51.660;5.824;2023-12-04T11:26:26;10.05;;;5.38;;
48526;SDS011;34317;51.660;5.824;2023-12-04T11:28:55;10.77;;;4.95;;
48526;SDS011;34317;51.660;5.824;2023-12-04T11:31:22;12.18;;;4.75;;
48526;SDS011;34317;51.660;5.824;2023-12-04T11:33:50;9.43;;;5.05;;
48526;SDS011;34317;51.660;5.824;2023-12-04T11:36:18;11.68;;;4.53;;
48526;SDS011;34317;51.660;5.824;2023-12-04T11:38:46;11.18;;;5.15;;
48526;SDS011;34317;51.660;5.824;2023-12-04T11:41:18;14.45;;;5.38;;
48526;SDS011;34317;51.660;5.824;2023-12-04T11:43:54;13.85;;;5.43;;
48526;SDS011;34317;51.660;5.824;2023-12-04T11:46:24;11.00;;;4.97;;
48526;SDS011;34317;51.660;5.824;2023-12-04T11:48:53;9.38;;;4.43;;
48526;SDS011;34317;51.660;5.824;2023-12-04T11:54:14;9.98;;;4.65;;
48526;SDS011;34317;51.660;5.824;2023-12-04T11:59:39;11.32;;;4.97;;
48526;SDS011;34317;51.660;5.824;2023-12-04T12:02:10;9.93;;;4.38;;
48526;SDS011;34317;51.660;5.824;2023-12-04T12:04:38;14.07;;;5.50;;
48526;SDS011;34317;51.660;5.824;2023-12-04T12:07:06;12.93;;;5.53;;
48526;SDS011;34317;51.660;5.824;2023-12-04T12:09:33;12.35;;;4.90;;
48526;SDS011;34317;51.660;5.824;2023-12-04T12:12:02;10.63;;;4.68;;
48526;SDS011;34317;51.660;5.824;2023-12-04T12:14:31;10.40;;;4.72;;
48526;SDS011;34317;51.660;5.824;2023-12-04T12:16:58;9.13;;;4.57;;
48526;SDS011;34317;51.660;5.824;2023-12-04T12:19:27;12.20;;;5.28;;
48526;SDS011;34317;51.660;5.824;2023-12-04T12:21:55;10.73;;;5.13;;
48526;SDS011;34317;51.660;5.824;2023-12-04T12:24:23;12.55;;;5.32;;
48526;SDS011;34317;51.660;5.824;2023-12-04T12:26:51;9.20;;;4.82;;
48526;SDS011;34317;51.660;5.824;2023-12-04T12:29:20;11.65;;;4.45;;
48526;SDS011;34317;51.660;5.824;2023-12-04T12:31:47;10.75;;;4.70;;
48526;SDS011;34317;51.660;5.824;2023-12-04T12:34:14;12.60;;;5.15;;
48526;SDS011;34317;51.660;5.824;2023-12-04T12:36:42;12.15;;;5.20;;
48526;SDS011;34317;51.660;5.824;2023-12-04T12:39:09;10.07;;;4.35;;
48526;SDS011;34317;51.660;5.824;2023-12-04T12:41:38;13.32;;;5.47;;
48526;SDS011;34317;51.660;5.824;2023-12-04T12:44:06;8.85;;;4.43;;
48526;SDS011;34317;51.660;5.824;2023-12-04T12:46:33;12.20;;;5.20;;
48526;SDS011;34317;51.660;5.824;2023-12-04T12:49:00;10.20;;;4.95;;
48526;SDS011;34317;51.660;5.824;2023-12-04T12:51:27;10.13;;;4.35;;
48526;SDS011;34317;51.660;5.824;2023-12-04T12:53:56;9.77;;;4.70;;
48526;SDS011;34317;51.660;5.824;2023-12-04T12:56:24;8.60;;;4.18;;
48526;SDS011;34317;51.660;5.824;2023-12-04T12:58:55;10.98;;;4.78;;
48526;SDS011;34317;51.660;5.824;2023-12-04T13:01:23;10.90;;;4.95;;
48526;SDS011;34317;51.660;5.824;2023-12-04T13:03:52;9.75;;;4.30;;
48526;SDS011;34317;51.660;5.824;2023-12-04T13:06:19;11.93;;;4.70;;
48526;SDS011;34317;51.660;5.824;2023-12-04T13:08:47;11.23;;;4.13;;
48526;SDS011;34317;51.660;5.824;2023-12-04T13:11:14;9.27;;;4.43;;
48526;SDS011;34317;51.660;5.824;2023-12-04T13:13:41;11.25;;;4.38;;
48526;SDS011;34317;51.660;5.824;2023-12-04T13:16:08;8.07;;;3.90;;
48526;SDS011;34317;51.660;5.824;2023-12-04T13:18:36;12.50;;;5.30;;
48526;SDS011;34317;51.660;5.824;2023-12-04T13:21:04;9.13;;;4.57;;
48526;SDS011;34317;51.660;5.824;2023-12-04T13:23:32;10.15;;;4.65;;
48526;SDS011;34317;51.660;5.824;2023-12-04T13:25:59;8.82;;;4.20;;
48526;SDS011;34317;51.660;5.824;2023-12-04T13:28:26;10.98;;;4.70;;
48526;SDS011;34317;51.660;5.824;2023-12-04T13:31:02;8.48;;;4.30;;
48526;SDS011;34317;51.660;5.824;2023-12-04T13:33:31;10.02;;;3.97;;
48526;SDS011;34317;51.660;5.824;2023-12-04T13:35:59;8.35;;;4.40;;
48526;SDS011;34317;51.660;5.824;2023-12-04T13:38:26;10.73;;;4.15;;
48526;SDS011;34317;51.660;5.824;2023-12-04T13:41:03;10.50;;;3.88;;
48526;SDS011;34317;51.660;5.824;2023-12-04T13:44:06;8.95;;;4.03;;
48526;SDS011;34317;51.660;5.824;2023-12-04T13:46:33;11.65;;;5.18;;
48526;SDS011;34317;51.660;5.824;2023-12-04T13:49:01;9.25;;;4.07;;
48526;SDS011;34317;51.660;5.824;2023-12-04T13:51:28;8.48;;;4.45;;
48526;SDS011;34317;51.660;5.824;2023-12-04T13:53:55;11.07;;;4.40;;
48526;SDS011;34317;51.660;5.824;2023-12-04T13:56:29;11.30;;;4.70;;
48526;SDS011;34317;51.660;5.824;2023-12-04T13:59:12;12.15;;;4.35;;
48526;SDS011;34317;51.660;5.824;2023-12-04T14:01:46;9.93;;;4.47;;
48526;SDS011;34317;51.660;5.824;2023-12-04T14:04:14;9.48;;;4.32;;
48526;SDS011;34317;51.660;5.824;2023-12-04T14:06:42;8.95;;;4.30;;
48526;SDS011;34317;51.660;5.824;2023-12-04T14:09:10;12.00;;;4.43;;
48526;SDS011;34317;51.660;5.824;2023-12-04T14:11:41;9.98;;;4.70;;
48526;SDS011;34317;51.660;5.824;2023-12-04T14:14:11;10.02;;;4.25;;
48526;SDS011;34317;51.660;5.824;2023-12-04T14:16:40;9.13;;;4.03;;
48526;SDS011;34317;51.660;5.824;2023-12-04T14:19:08;9.02;;;4.47;;
48526;SDS011;34317;51.660;5.824;2023-12-04T14:21:36;10.75;;;4.55;;
48526;SDS011;34317;51.660;5.824;2023-12-04T14:24:03;12.02;;;4.43;;
48526;SDS011;34317;51.660;5.824;2023-12-04T14:26:31;7.03;;;3.85;;
48526;SDS011;34317;51.660;5.824;2023-12-04T14:28:58;9.10;;;4.38;;
48526;SDS011;34317;51.660;5.824;2023-12-04T14:31:28;10.57;;;4.57;;
48526;SDS011;34317;51.660;5.824;2023-12-04T14:33:55;8.35;;;4.57;;
48526;SDS011;34317;51.660;5.824;2023-12-04T14:36:23;9.93;;;5.00;;
48526;SDS011;34317;51.660;5.824;2023-12-04T14:38:50;10.13;;;4.90;;
48526;SDS011;34317;51.660;5.824;2023-12-04T14:41:17;11.95;;;4.53;;
48526;SDS011;34317;51.660;5.824;2023-12-04T14:43:44;8.95;;;4.22;;
48526;SDS011;34317;51.660;5.824;2023-12-04T14:46:12;12.23;;;4.72;;
48526;SDS011;34317;51.660;5.824;2023-12-04T14:48:40;12.48;;;4.70;;
48526;SDS011;34317;51.660;5.824;2023-12-04T14:51:08;11.30;;;4.93;;
48526;SDS011;34317;51.660;5.824;2023-12-04T14:53:39;10.07;;;4.65;;
48526;SDS011;34317;51.660;5.824;2023-12-04T14:56:10;9.27;;;4.55;;